sensor_id;sensor_type;location;lat;lon;timestamp;P1;durP1;ratioP1;P2;durP2;ratioP2
6937;SDS011;40040;42.706;23.372;2023-09-30T00:01:46;7.15;;;5.50;;
6937;SDS011;40040;42.706;23.372;2023-09-30T00:04:13;9.93;;;5.80;;
6937;SDS011;40040;42.706;23.372;2023-09-30T00:06:40;6.43;;;5.55;;
6937;SDS011;40040;42.706;23.372;2023-09-30T00:09:06;7.40;;;5.70;;
6937;SDS011;40040;42.706;23.372;2023-09-30T00:11:35;6.63;;;5.45;;
6937;SDS011;40040;42.706;23.372;2023-09-30T00:14:02;5.78;;;5.28;;
6937;SDS011;40040;42.706;23.372;2023-09-30T00:16:29;7.15;;;5.38;;
6937;SDS011;40040;42.706;23.372;2023-09-30T00:18:56;8.40;;;6.00;;
6937;SDS011;40040;42.706;23.372;2023-09-30T00:21:23;9.60;;;5.82;;
6937;SDS011;40040;42.706;23.372;2023-09-30T00:23:50;8.27;;;5.72;;
6937;SDS011;40040;42.706;23.372;2023-09-30T00:26:17;7.72;;;5.35;;
6937;SDS011;40040;42.706;23.372;2023-09-30T00:28:45;9.73;;;6.20;;
6937;SDS011;40040;42.706;23.372;2023-09-30T00:31:12;6.45;;;5.53;;
6937;SDS011;40040;42.706;23.372;2023-09-30T00:33:40;8.10;;;5.70;;
6937;SDS011;40040;42.706;23.372;2023-09-30T00:36:07;6.75;;;5.30;;
6937;SDS011;40040;42.706;23.372;2023-09-30T00:38:35;8.35;;;5.50;;
6937;SDS011;40040;42.706;23.372;2023-09-30T00:41:02;7.97;;;5.55;;
6937;SDS011;40040;42.706;23.372;2023-09-30T00:43:29;7.53;;;5.30;;
6937;SDS011;40040;42.706;23.372;2023-09-30T00:46:04;7.88;;;5.18;;
6937;SDS011;40040;42.706;23.372;2023-09-30T00:48:38;8.07;;;5.32;;
6937;SDS011;40040;42.706;23.372;2023-09-30T00:51:05;7.78;;;5.50;;
6937;SDS011;40040;42.706;23.372;2023-09-30T00:53:32;5.95;;;5.35;;
6937;SDS011;40040;42.706;23.372;2023-09-30T00:55:59;7.03;;;5.60;;
6937;SDS011;40040;42.706;23.372;2023-09-30T00:58:27;8.98;;;5.63;;
6937;SDS011;40040;42.706;23.372;2023-09-30T01:00:56;8.60;;;6.18;;
6937;SDS011;40040;42.706;23.372;2023-09-30T01:03:25;6.38;;;5.78;;
6937;SDS011;40040;42.706;23.372;2023-09-30T01:05:52;6.10;;;5.18;;
6937;SDS011;40040;42.706;23.372;2023-09-30T01:08:20;7.60;;;5.63;;
6937;SDS011;40040;42.706;23.372;2023-09-30T01:10:47;7.78;;;6.00;;
6937;SDS011;40040;42.706;23.372;2023-09-30T01:13:14;7.00;;;5.78;;
6937;SDS011;40040;42.706;23.372;2023-09-30T01:15:41;6.82;;;6.13;;
6937;SDS011;40040;42.706;23.372;2023-09-30T01:18:09;6.55;;;5.95;;
6937;SDS011;40040;42.706;23.372;2023-09-30T01:20:36;7.53;;;5.78;;
6937;SDS011;40040;42.706;23.372;2023-09-30T01:23:05;6.60;;;5.55;;
6937;SDS011;40040;42.706;23.372;2023-09-30T01:25:32;7.15;;;5.88;;
6937;SDS011;40040;42.706;23.372;2023-09-30T01:28:07;9.18;;;6.15;;
6937;SDS011;40040;42.706;23.372;2023-09-30T01:30:35;8.45;;;5.95;;
6937;SDS011;40040;42.706;23.372;2023-09-30T01:33:02;8.25;;;6.18;;
6937;SDS011;40040;42.706;23.372;2023-09-30T01:35:29;7.03;;;6.05;;
6937;SDS011;40040;42.706;23.372;2023-09-30T01:37:57;9.07;;;6.35;;
6937;SDS011;40040;42.706;23.372;2023-09-30T01:40:25;7.60;;;6.55;;
6937;SDS011;40040;42.706;23.372;2023-09-30T01:42:52;9.63;;;6.38;;
6937;SDS011;40040;42.706;23.372;2023-09-30T01:45:18;8.23;;;6.47;;
6937;SDS011;40040;42.706;23.372;2023-09-30T01:47:45;7.78;;;6.30;;
6937;SDS011;40040;42.706;23.372;2023-09-30T01:50:12;8.70;;;6.13;;
6937;SDS011;40040;42.706;23.372;2023-09-30T01:52:40;7.90;;;6.68;;
6937;SDS011;40040;42.706;23.372;2023-09-30T01:55:07;9.00;;;6.15;;
6937;SDS011;40040;42.706;23.372;2023-09-30T01:57:35;8.68;;;6.55;;
6937;SDS011;40040;42.706;23.372;2023-09-30T02:00:02;8.82;;;6.85;;
6937;SDS011;40040;42.706;23.372;2023-09-30T02:02:30;6.80;;;6.10;;
6937;SDS011;40040;42.706;23.372;2023-09-30T02:04:57;7.00;;;5.65;;
6937;SDS011;40040;42.706;23.372;2023-09-30T02:07:24;7.68;;;5.88;;
6937;SDS011;40040;42.706;23.372;2023-09-30T02:09:51;7.65;;;5.95;;
6937;SDS011;40040;42.706;23.372;2023-09-30T02:12:18;7.05;;;5.63;;
6937;SDS011;40040;42.706;23.372;2023-09-30T02:14:46;6.18;;;5.57;;
6937;SDS011;40040;42.706;23.372;2023-09-30T02:17:13;6.82;;;5.47;;
6937;SDS011;40040;42.706;23.372;2023-09-30T02:19:40;8.20;;;5.57;;
6937;SDS011;40040;42.706;23.372;2023-09-30T02:22:07;7.70;;;5.97;;
6937;SDS011;40040;42.706;23.372;2023-09-30T02:24:34;6.30;;;5.72;;
6937;SDS011;40040;42.706;23.372;2023-09-30T02:27:01;6.57;;;5.47;;
6937;SDS011;40040;42.706;23.372;2023-09-30T02:29:28;6.40;;;5.22;;
6937;SDS011;40040;42.706;23.372;2023-09-30T02:31:57;7.65;;;5.75;;
6937;SDS011;40040;42.706;23.372;2023-09-30T02:34:24;7.70;;;5.72;;
6937;SDS011;40040;42.706;23.372;2023-09-30T02:36:51;7.32;;;5.57;;
6937;SDS011;40040;42.706;23.372;2023-09-30T02:39:20;8.82;;;6.25;;
6937;SDS011;40040;42.706;23.372;2023-09-30T02:41:47;6.22;;;5.57;;
6937;SDS011;40040;42.706;23.372;2023-09-30T02:44:15;7.65;;;5.18;;
6937;SDS011;40040;42.706;23.372;2023-09-30T02:46:42;6.30;;;5.38;;
6937;SDS011;40040;42.706;23.372;2023-09-30T02:49:10;6.63;;;5.93;;
6937;SDS011;40040;42.706;23.372;2023-09-30T02:51:37;6.72;;;6.00;;
6937;SDS011;40040;42.706;23.372;2023-09-30T02:54:04;8.35;;;6.07;;
6937;SDS011;40040;42.706;23.372;2023-09-30T02:56:31;7.55;;;5.80;;
6937;SDS011;40040;42.706;23.372;2023-09-30T02:58:58;7.60;;;5.68;;
6937;SDS011;40040;42.706;23.372;2023-09-30T03:01:26;6.13;;;5.28;;
6937;SDS011;40040;42.706;23.372;2023-09-30T03:03:53;8.43;;;5.97;;
6937;SDS011;40040;42.706;23.372;2023-09-30T03:06:21;6.25;;;5.57;;
6937;SDS011;40040;42.706;23.372;2023-09-30T03:08:48;9.07;;;6.28;;
6937;SDS011;40040;42.706;23.372;2023-09-30T03:11:17;7.07;;;6.00;;
6937;SDS011;40040;42.706;23.372;2023-09-30T03:13:45;10.10;;;6.30;;
6937;SDS011;40040;42.706;23.372;2023-09-30T03:16:12;6.50;;;5.80;;
6937;SDS011;40040;42.706;23.372;2023-09-30T03:18:38;7.22;;;5.95;;
6937;SDS011;40040;42.706;23.372;2023-09-30T03:21:12;9.88;;;6.10;;
6937;SDS011;40040;42.706;23.372;2023-09-30T03:23:42;7.85;;;6.47;;
6937;SDS011;40040;42.706;23.372;2023-09-30T03:26:09;7.30;;;5.93;;
6937;SDS011;40040;42.706;23.372;2023-09-30T03:28:36;8.65;;;6.22;;
6937;SDS011;40040;42.706;23.372;2023-09-30T03:31:03;8.52;;;6.00;;
6937;SDS011;40040;42.706;23.372;2023-09-30T03:33:30;6.55;;;5.95;;
6937;SDS011;40040;42.706;23.372;2023-09-30T03:35:57;9.40;;;6.13;;
6937;SDS011;40040;42.706;23.372;2023-09-30T03:38:25;6.88;;;5.88;;
6937;SDS011;40040;42.706;23.372;2023-09-30T03:40:53;8.77;;;6.32;;
6937;SDS011;40040;42.706;23.372;2023-09-30T03:43:20;9.48;;;6.00;;
6937;SDS011;40040;42.706;23.372;2023-09-30T03:45:48;6.03;;;5.40;;
6937;SDS011;40040;42.706;23.372;2023-09-30T03:48:15;9.48;;;6.18;;
6937;SDS011;40040;42.706;23.372;2023-09-30T03:50:43;9.40;;;6.22;;
6937;SDS011;40040;42.706;23.372;2023-09-30T03:53:10;8.27;;;6.28;;
6937;SDS011;40040;42.706;23.372;2023-09-30T03:55:37;8.73;;;6.00;;
6937;SDS011;40040;42.706;23.372;2023-09-30T03:58:05;9.25;;;5.35;;
6937;SDS011;40040;42.706;23.372;2023-09-30T04:00:32;11.07;;;5.88;;
6937;SDS011;40040;42.706;23.372;2023-09-30T04:03:00;6.28;;;5.68;;
6937;SDS011;40040;42.706;23.372;2023-09-30T04:05:28;6.65;;;5.95;;
6937;SDS011;40040;42.706;23.372;2023-09-30T04:07:57;9.82;;;5.93;;
6937;SDS011;40040;42.706;23.372;2023-09-30T04:10:24;10.00;;;6.82;;
6937;SDS011;40040;42.706;23.372;2023-09-30T04:12:50;9.20;;;6.25;;
6937;SDS011;40040;42.706;23.372;2023-09-30T04:15:19;9.63;;;6.68;;
6937;SDS011;40040;42.706;23.372;2023-09-30T04:17:47;8.32;;;6.63;;
6937;SDS011;40040;42.706;23.372;2023-09-30T04:20:14;9.85;;;6.28;;
6937;SDS011;40040;42.706;23.372;2023-09-30T04:22:48;9.25;;;7.03;;
6937;SDS011;40040;42.706;23.372;2023-09-30T04:25:16;11.02;;;7.13;;
6937;SDS011;40040;42.706;23.372;2023-09-30T04:27:44;7.95;;;6.85;;
6937;SDS011;40040;42.706;23.372;2023-09-30T04:30:13;7.82;;;6.50;;
6937;SDS011;40040;42.706;23.372;2023-09-30T04:32:41;12.70;;;6.43;;
6937;SDS011;40040;42.706;23.372;2023-09-30T04:35:09;8.63;;;6.45;;
6937;SDS011;40040;42.706;23.372;2023-09-30T04:37:36;11.23;;;7.03;;
6937;SDS011;40040;42.706;23.372;2023-09-30T04:40:04;7.45;;;6.60;;
6937;SDS011;40040;42.706;23.372;2023-09-30T04:42:40;8.88;;;6.25;;
6937;SDS011;40040;42.706;23.372;2023-09-30T04:45:08;10.65;;;6.88;;
6937;SDS011;40040;42.706;23.372;2023-09-30T04:47:36;13.45;;;6.15;;
6937;SDS011;40040;42.706;23.372;2023-09-30T04:50:06;9.40;;;6.75;;
6937;SDS011;40040;42.706;23.372;2023-09-30T04:52:34;8.35;;;6.60;;
6937;SDS011;40040;42.706;23.372;2023-09-30T04:55:01;12.93;;;6.85;;
6937;SDS011;40040;42.706;23.372;2023-09-30T04:57:29;9.57;;;6.40;;
6937;SDS011;40040;42.706;23.372;2023-09-30T04:59:56;9.98;;;6.90;;
6937;SDS011;40040;42.706;23.372;2023-09-30T05:02:23;10.68;;;6.72;;
6937;SDS011;40040;42.706;23.372;2023-09-30T05:04:51;11.43;;;6.50;;
6937;SDS011;40040;42.706;23.372;2023-09-30T05:07:20;10.00;;;6.65;;
6937;SDS011;40040;42.706;23.372;2023-09-30T05:09:47;10.80;;;7.00;;
6937;SDS011;40040;42.706;23.372;2023-09-30T05:12:14;8.32;;;6.97;;
6937;SDS011;40040;42.706;23.372;2023-09-30T05:14:41;10.50;;;7.15;;
6937;SDS011;40040;42.706;23.372;2023-09-30T05:17:09;8.25;;;6.55;;
6937;SDS011;40040;42.706;23.372;2023-09-30T05:19:36;9.55;;;6.85;;
6937;SDS011;40040;42.706;23.372;2023-09-30T05:22:03;9.10;;;6.80;;
6937;SDS011;40040;42.706;23.372;2023-09-30T05:24:31;8.10;;;7.13;;
6937;SDS011;40040;42.706;23.372;2023-09-30T05:27:00;8.65;;;6.88;;
6937;SDS011;40040;42.706;23.372;2023-09-30T05:29:27;9.93;;;6.80;;
6937;SDS011;40040;42.706;23.372;2023-09-30T05:31:53;10.07;;;7.43;;
6937;SDS011;40040;42.706;23.372;2023-09-30T05:34:21;9.45;;;7.32;;
6937;SDS011;40040;42.706;23.372;2023-09-30T05:36:48;8.35;;;5.97;;
6937;SDS011;40040;42.706;23.372;2023-09-30T05:39:16;15.27;;;6.80;;
6937;SDS011;40040;42.706;23.372;2023-09-30T05:41:46;10.90;;;6.53;;
6937;SDS011;40040;42.706;23.372;2023-09-30T05:44:13;12.70;;;7.10;;
6937;SDS011;40040;42.706;23.372;2023-09-30T05:46:40;17.23;;;7.13;;
6937;SDS011;40040;42.706;23.372;2023-09-30T05:49:08;10.85;;;7.20;;
6937;SDS011;40040;42.706;23.372;2023-09-30T05:51:38;13.10;;;7.05;;
6937;SDS011;40040;42.706;23.372;2023-09-30T05:54:06;14.85;;;7.20;;
6937;SDS011;40040;42.706;23.372;2023-09-30T05:56:35;10.90;;;6.53;;
6937;SDS011;40040;42.706;23.372;2023-09-30T05:59:03;9.82;;;7.10;;
6937;SDS011;40040;42.706;23.372;2023-09-30T06:01:31;12.60;;;6.35;;
6937;SDS011;40040;42.706;23.372;2023-09-30T06:03:58;10.73;;;6.85;;
6937;SDS011;40040;42.706;23.372;2023-09-30T06:06:26;10.52;;;6.63;;
6937;SDS011;40040;42.706;23.372;2023-09-30T06:08:53;9.00;;;6.25;;
6937;SDS011;40040;42.706;23.372;2023-09-30T06:11:20;10.20;;;6.57;;
6937;SDS011;40040;42.706;23.372;2023-09-30T06:13:49;9.85;;;6.18;;
6937;SDS011;40040;42.706;23.372;2023-09-30T06:16:17;8.27;;;6.55;;
6937;SDS011;40040;42.706;23.372;2023-09-30T06:18:44;8.82;;;6.47;;
6937;SDS011;40040;42.706;23.372;2023-09-30T06:21:11;9.02;;;6.47;;
6937;SDS011;40040;42.706;23.372;2023-09-30T06:23:39;13.32;;;6.50;;
6937;SDS011;40040;42.706;23.372;2023-09-30T06:26:05;9.95;;;6.88;;
6937;SDS011;40040;42.706;23.372;2023-09-30T06:28:32;8.93;;;6.60;;
6937;SDS011;40040;42.706;23.372;2023-09-30T06:31:05;10.73;;;7.07;;
6937;SDS011;40040;42.706;23.372;2023-09-30T06:33:34;9.48;;;7.38;;
6937;SDS011;40040;42.706;23.372;2023-09-30T06:36:01;7.93;;;6.50;;
6937;SDS011;40040;42.706;23.372;2023-09-30T06:38:28;7.30;;;6.30;;
6937;SDS011;40040;42.706;23.372;2023-09-30T06:40:55;12.05;;;6.50;;
6937;SDS011;40040;42.706;23.372;2023-09-30T06:43:21;8.32;;;6.05;;
6937;SDS011;40040;42.706;23.372;2023-09-30T06:45:48;9.88;;;6.15;;
6937;SDS011;40040;42.706;23.372;2023-09-30T06:48:15;9.57;;;6.63;;
6937;SDS011;40040;42.706;23.372;2023-09-30T06:50:46;7.75;;;6.00;;
6937;SDS011;40040;42.706;23.372;2023-09-30T06:53:14;8.57;;;6.60;;
6937;SDS011;40040;42.706;23.372;2023-09-30T06:55:41;15.23;;;7.28;;
6937;SDS011;40040;42.706;23.372;2023-09-30T06:58:08;8.90;;;6.60;;
6937;SDS011;40040;42.706;23.372;2023-09-30T07:00:36;9.65;;;7.18;;
6937;SDS011;40040;42.706;23.372;2023-09-30T07:03:03;9.45;;;7.13;;
6937;SDS011;40040;42.706;23.372;2023-09-30T07:05:30;10.20;;;7.60;;
6937;SDS011;40040;42.706;23.372;2023-09-30T07:07:59;9.95;;;7.18;;
6937;SDS011;40040;42.706;23.372;2023-09-30T07:10:25;7.88;;;6.88;;
6937;SDS011;40040;42.706;23.372;2023-09-30T07:12:54;10.65;;;7.07;;
6937;SDS011;40040;42.706;23.372;2023-09-30T07:15:21;8.65;;;7.43;;
6937;SDS011;40040;42.706;23.372;2023-09-30T07:17:48;12.40;;;7.05;;
6937;SDS011;40040;42.706;23.372;2023-09-30T07:20:15;11.85;;;7.50;;
6937;SDS011;40040;42.706;23.372;2023-09-30T07:22:42;8.57;;;7.03;;
6937;SDS011;40040;42.706;23.372;2023-09-30T07:25:11;9.95;;;7.05;;
6937;SDS011;40040;42.706;23.372;2023-09-30T07:27:39;9.68;;;7.55;;
6937;SDS011;40040;42.706;23.372;2023-09-30T07:30:07;14.63;;;7.70;;
6937;SDS011;40040;42.706;23.372;2023-09-30T07:32:35;9.95;;;7.75;;
6937;SDS011;40040;42.706;23.372;2023-09-30T07:35:01;9.50;;;7.20;;
6937;SDS011;40040;42.706;23.372;2023-09-30T07:37:28;10.98;;;7.47;;
6937;SDS011;40040;42.706;23.372;2023-09-30T07:39:55;9.60;;;7.60;;
6937;SDS011;40040;42.706;23.372;2023-09-30T07:42:23;10.20;;;7.10;;
6937;SDS011;40040;42.706;23.372;2023-09-30T07:44:50;8.20;;;6.90;;
6937;SDS011;40040;42.706;23.372;2023-09-30T07:47:17;11.55;;;7.28;;
6937;SDS011;40040;42.706;23.372;2023-09-30T07:49:44;10.63;;;6.70;;
6937;SDS011;40040;42.706;23.372;2023-09-30T07:52:11;9.77;;;6.32;;
6937;SDS011;40040;42.706;23.372;2023-09-30T07:54:38;9.45;;;6.93;;
6937;SDS011;40040;42.706;23.372;2023-09-30T07:57:05;7.25;;;6.40;;
6937;SDS011;40040;42.706;23.372;2023-09-30T07:59:33;7.50;;;6.18;;
6937;SDS011;40040;42.706;23.372;2023-09-30T08:02:00;7.78;;;5.50;;
6937;SDS011;40040;42.706;23.372;2023-09-30T08:04:30;6.32;;;5.72;;
6937;SDS011;40040;42.706;23.372;2023-09-30T08:06:57;8.02;;;6.15;;
6937;SDS011;40040;42.706;23.372;2023-09-30T08:09:23;7.45;;;6.22;;
6937;SDS011;40040;42.706;23.372;2023-09-30T08:11:50;7.18;;;5.45;;
6937;SDS011;40040;42.706;23.372;2023-09-30T08:14:19;11.93;;;5.95;;
6937;SDS011;40040;42.706;23.372;2023-09-30T08:16:47;6.90;;;6.13;;
6937;SDS011;40040;42.706;23.372;2023-09-30T08:19:14;8.35;;;6.30;;
6937;SDS011;40040;42.706;23.372;2023-09-30T08:21:41;10.50;;;5.97;;
6937;SDS011;40040;42.706;23.372;2023-09-30T08:24:08;6.70;;;5.82;;
6937;SDS011;40040;42.706;23.372;2023-09-30T08:26:35;6.53;;;5.90;;
6937;SDS011;40040;42.706;23.372;2023-09-30T08:29:03;8.70;;;5.70;;
6937;SDS011;40040;42.706;23.372;2023-09-30T08:31:31;6.78;;;6.03;;
6937;SDS011;40040;42.706;23.372;2023-09-30T08:33:59;6.72;;;5.70;;
6937;SDS011;40040;42.706;23.372;2023-09-30T08:36:29;12.52;;;6.40;;
6937;SDS011;40040;42.706;23.372;2023-09-30T08:38:56;7.63;;;6.35;;
6937;SDS011;40040;42.706;23.372;2023-09-30T08:41:24;7.22;;;6.32;;
6937;SDS011;40040;42.706;23.372;2023-09-30T08:43:59;9.23;;;6.90;;
6937;SDS011;40040;42.706;23.372;2023-09-30T08:46:27;8.63;;;6.93;;
6937;SDS011;40040;42.706;23.372;2023-09-30T08:48:57;9.32;;;6.68;;
6937;SDS011;40040;42.706;23.372;2023-09-30T08:51:26;8.27;;;7.35;;
6937;SDS011;40040;42.706;23.372;2023-09-30T08:53:55;11.18;;;7.68;;
6937;SDS011;40040;42.706;23.372;2023-09-30T08:56:24;8.57;;;7.40;;
6937;SDS011;40040;42.706;23.372;2023-09-30T08:58:54;11.80;;;7.55;;
6937;SDS011;40040;42.706;23.372;2023-09-30T09:01:23;8.77;;;7.28;;
6937;SDS011;40040;42.706;23.372;2023-09-30T09:03:51;9.82;;;7.78;;
6937;SDS011;40040;42.706;23.372;2023-09-30T09:06:19;9.65;;;8.63;;
6937;SDS011;40040;42.706;23.372;2023-09-30T09:08:48;9.32;;;8.40;;
6937;SDS011;40040;42.706;23.372;2023-09-30T09:11:15;11.52;;;8.55;;
6937;SDS011;40040;42.706;23.372;2023-09-30T09:13:45;11.00;;;8.40;;
6937;SDS011;40040;42.706;23.372;2023-09-30T09:16:15;10.25;;;8.65;;
6937;SDS011;40040;42.706;23.372;2023-09-30T09:18:43;10.18;;;8.48;;
6937;SDS011;40040;42.706;23.372;2023-09-30T09:21:10;10.02;;;7.78;;
6937;SDS011;40040;42.706;23.372;2023-09-30T09:23:42;9.10;;;7.22;;
6937;SDS011;40040;42.706;23.372;2023-09-30T09:26:11;8.68;;;7.72;;
6937;SDS011;40040;42.706;23.372;2023-09-30T09:28:39;8.55;;;7.50;;
6937;SDS011;40040;42.706;23.372;2023-09-30T09:31:20;8.85;;;7.95;;
6937;SDS011;40040;42.706;23.372;2023-09-30T09:33:51;8.27;;;7.47;;
6937;SDS011;40040;42.706;23.372;2023-09-30T09:36:18;9.55;;;7.88;;
6937;SDS011;40040;42.706;23.372;2023-09-30T09:38:48;7.10;;;6.50;;
6937;SDS011;40040;42.706;23.372;2023-09-30T09:41:20;6.53;;;5.93;;
6937;SDS011;40040;42.706;23.372;2023-09-30T09:43:48;6.82;;;5.95;;
6937;SDS011;40040;42.706;23.372;2023-09-30T09:46:16;6.20;;;5.60;;
6937;SDS011;40040;42.706;23.372;2023-09-30T09:48:45;7.47;;;5.97;;
6937;SDS011;40040;42.706;23.372;2023-09-30T09:51:12;6.70;;;6.10;;
6937;SDS011;40040;42.706;23.372;2023-09-30T09:53:40;7.00;;;6.30;;
6937;SDS011;40040;42.706;23.372;2023-09-30T09:56:09;5.88;;;5.38;;
6937;SDS011;40040;42.706;23.372;2023-09-30T09:58:39;9.93;;;6.43;;
6937;SDS011;40040;42.706;23.372;2023-09-30T10:01:09;6.55;;;5.93;;
6937;SDS011;40040;42.706;23.372;2023-09-30T10:03:37;6.03;;;5.53;;
6937;SDS011;40040;42.706;23.372;2023-09-30T10:06:04;6.90;;;6.10;;
6937;SDS011;40040;42.706;23.372;2023-09-30T10:08:33;6.10;;;5.57;;
6937;SDS011;40040;42.706;23.372;2023-09-30T10:11:04;5.32;;;4.88;;
6937;SDS011;40040;42.706;23.372;2023-09-30T10:13:52;5.72;;;4.57;;
6937;SDS011;40040;42.706;23.372;2023-09-30T10:19:15;5.15;;;4.68;;
6937;SDS011;40040;42.706;23.372;2023-09-30T10:24:48;4.63;;;4.20;;
6937;SDS011;40040;42.706;23.372;2023-09-30T10:27:28;4.28;;;3.90;;
6937;SDS011;40040;42.706;23.372;2023-09-30T10:29:58;4.82;;;3.78;;
6937;SDS011;40040;42.706;23.372;2023-09-30T10:35:43;5.30;;;4.30;;
6937;SDS011;40040;42.706;23.372;2023-09-30T10:41:03;4.55;;;3.95;;
6937;SDS011;40040;42.706;23.372;2023-09-30T10:43:30;5.38;;;4.57;;
6937;SDS011;40040;42.706;23.372;2023-09-30T10:45:59;4.25;;;4.05;;
6937;SDS011;40040;42.706;23.372;2023-09-30T10:48:33;4.50;;;4.20;;
6937;SDS011;40040;42.706;23.372;2023-09-30T10:51:02;5.65;;;4.30;;
6937;SDS011;40040;42.706;23.372;2023-09-30T10:53:42;5.07;;;4.68;;
6937;SDS011;40040;42.706;23.372;2023-09-30T10:56:11;5.30;;;4.72;;
6937;SDS011;40040;42.706;23.372;2023-09-30T10:58:39;4.75;;;4.00;;
6937;SDS011;40040;42.706;23.372;2023-09-30T11:01:11;5.20;;;4.78;;
6937;SDS011;40040;42.706;23.372;2023-09-30T11:03:39;5.47;;;5.07;;
6937;SDS011;40040;42.706;23.372;2023-09-30T11:06:06;5.45;;;4.93;;
6937;SDS011;40040;42.706;23.372;2023-09-30T11:08:34;5.20;;;4.80;;
6937;SDS011;40040;42.706;23.372;2023-09-30T11:11:03;4.97;;;4.57;;
6937;SDS011;40040;42.706;23.372;2023-09-30T11:13:33;6.03;;;4.38;;
6937;SDS011;40040;42.706;23.372;2023-09-30T11:16:01;6.18;;;4.88;;
6937;SDS011;40040;42.706;23.372;2023-09-30T11:18:31;4.97;;;4.53;;
6937;SDS011;40040;42.706;23.372;2023-09-30T11:21:06;4.90;;;4.60;;
6937;SDS011;40040;42.706;23.372;2023-09-30T11:23:34;7.63;;;4.97;;
6937;SDS011;40040;42.706;23.372;2023-09-30T11:26:01;6.90;;;5.78;;
6937;SDS011;40040;42.706;23.372;2023-09-30T11:28:35;5.38;;;4.88;;
6937;SDS011;40040;42.706;23.372;2023-09-30T11:31:06;5.68;;;5.18;;
6937;SDS011;40040;42.706;23.372;2023-09-30T11:33:49;5.75;;;5.18;;
6937;SDS011;40040;42.706;23.372;2023-09-30T11:36:18;5.78;;;5.22;;
6937;SDS011;40040;42.706;23.372;2023-09-30T11:38:46;5.72;;;4.80;;
6937;SDS011;40040;42.706;23.372;2023-09-30T11:41:14;5.47;;;4.82;;
6937;SDS011;40040;42.706;23.372;2023-09-30T11:43:58;5.93;;;5.43;;
6937;SDS011;40040;42.706;23.372;2023-09-30T11:46:27;5.70;;;5.28;;
6937;SDS011;40040;42.706;23.372;2023-09-30T11:48:58;7.07;;;5.90;;
6937;SDS011;40040;42.706;23.372;2023-09-30T11:51:26;5.93;;;5.38;;
6937;SDS011;40040;42.706;23.372;2023-09-30T11:53:53;5.68;;;5.18;;
6937;SDS011;40040;42.706;23.372;2023-09-30T11:56:21;6.82;;;5.53;;
6937;SDS011;40040;42.706;23.372;2023-09-30T11:58:53;6.20;;;5.70;;
6937;SDS011;40040;42.706;23.372;2023-09-30T12:01:20;5.43;;;4.93;;
6937;SDS011;40040;42.706;23.372;2023-09-30T12:03:47;5.40;;;4.93;;
6937;SDS011;40040;42.706;23.372;2023-09-30T12:06:15;5.60;;;5.10;;
6937;SDS011;40040;42.706;23.372;2023-09-30T12:08:42;6.13;;;4.80;;
6937;SDS011;40040;42.706;23.372;2023-09-30T12:11:10;5.40;;;4.95;;
6937;SDS011;40040;42.706;23.372;2023-09-30T12:13:38;5.43;;;4.90;;
6937;SDS011;40040;42.706;23.372;2023-09-30T12:16:05;5.45;;;5.00;;
6937;SDS011;40040;42.706;23.372;2023-09-30T12:18:32;5.55;;;5.00;;
6937;SDS011;40040;42.706;23.372;2023-09-30T12:20:59;5.22;;;4.68;;
6937;SDS011;40040;42.706;23.372;2023-09-30T12:23:27;5.70;;;5.25;;
6937;SDS011;40040;42.706;23.372;2023-09-30T12:25:54;7.13;;;6.20;;
6937;SDS011;40040;42.706;23.372;2023-09-30T12:28:20;5.78;;;5.20;;
6937;SDS011;40040;42.706;23.372;2023-09-30T12:30:47;5.72;;;5.22;;
6937;SDS011;40040;42.706;23.372;2023-09-30T12:33:14;5.60;;;5.07;;
6937;SDS011;40040;42.706;23.372;2023-09-30T12:35:41;6.10;;;5.50;;
6937;SDS011;40040;42.706;23.372;2023-09-30T12:38:08;6.05;;;5.45;;
6937;SDS011;40040;42.706;23.372;2023-09-30T12:40:37;5.53;;;5.13;;
6937;SDS011;40040;42.706;23.372;2023-09-30T12:43:04;6.57;;;5.57;;
6937;SDS011;40040;42.706;23.372;2023-09-30T12:45:32;5.63;;;5.15;;
6937;SDS011;40040;42.706;23.372;2023-09-30T12:47:58;9.85;;;5.60;;
6937;SDS011;40040;42.706;23.372;2023-09-30T12:50:25;7.00;;;5.88;;
6937;SDS011;40040;42.706;23.372;2023-09-30T12:52:52;6.05;;;5.00;;
6937;SDS011;40040;42.706;23.372;2023-09-30T12:55:19;6.88;;;6.15;;
6937;SDS011;40040;42.706;23.372;2023-09-30T12:57:47;6.63;;;5.90;;
6937;SDS011;40040;42.706;23.372;2023-09-30T13:00:15;6.10;;;5.60;;
6937;SDS011;40040;42.706;23.372;2023-09-30T13:02:44;7.25;;;5.90;;
6937;SDS011;40040;42.706;23.372;2023-09-30T13:05:11;6.65;;;5.95;;
6937;SDS011;40040;42.706;23.372;2023-09-30T13:07:38;5.97;;;5.47;;
6937;SDS011;40040;42.706;23.372;2023-09-30T13:10:05;6.43;;;5.93;;
6937;SDS011;40040;42.706;23.372;2023-09-30T13:12:33;6.15;;;5.57;;
6937;SDS011;40040;42.706;23.372;2023-09-30T13:15:02;6.70;;;5.95;;
6937;SDS011;40040;42.706;23.372;2023-09-30T13:17:30;8.05;;;5.80;;
6937;SDS011;40040;42.706;23.372;2023-09-30T13:19:57;6.63;;;6.03;;
6937;SDS011;40040;42.706;23.372;2023-09-30T13:22:24;6.57;;;5.97;;
6937;SDS011;40040;42.706;23.372;2023-09-30T13:24:51;6.82;;;6.22;;
6937;SDS011;40040;42.706;23.372;2023-09-30T13:27:18;6.88;;;6.20;;
6937;SDS011;40040;42.706;23.372;2023-09-30T13:29:46;6.85;;;6.35;;
6937;SDS011;40040;42.706;23.372;2023-09-30T13:32:14;6.57;;;5.78;;
6937;SDS011;40040;42.706;23.372;2023-09-30T13:34:44;7.15;;;5.82;;
6937;SDS011;40040;42.706;23.372;2023-09-30T13:37:10;7.10;;;6.18;;
6937;SDS011;40040;42.706;23.372;2023-09-30T13:39:37;8.05;;;5.75;;
6937;SDS011;40040;42.706;23.372;2023-09-30T13:42:04;7.68;;;6.35;;
6937;SDS011;40040;42.706;23.372;2023-09-30T13:44:32;7.50;;;6.35;;
6937;SDS011;40040;42.706;23.372;2023-09-30T13:46:59;6.68;;;5.97;;
6937;SDS011;40040;42.706;23.372;2023-09-30T13:49:27;7.22;;;6.45;;
6937;SDS011;40040;42.706;23.372;2023-09-30T13:51:55;6.32;;;5.70;;
6937;SDS011;40040;42.706;23.372;2023-09-30T13:54:22;8.95;;;5.95;;
6937;SDS011;40040;42.706;23.372;2023-09-30T13:56:49;6.85;;;6.15;;
6937;SDS011;40040;42.706;23.372;2023-09-30T13:59:15;7.45;;;5.97;;
6937;SDS011;40040;42.706;23.372;2023-09-30T14:01:42;6.60;;;6.00;;
6937;SDS011;40040;42.706;23.372;2023-09-30T14:04:10;7.47;;;6.00;;
6937;SDS011;40040;42.706;23.372;2023-09-30T14:06:38;6.30;;;5.53;;
6937;SDS011;40040;42.706;23.372;2023-09-30T14:09:06;5.75;;;5.20;;
6937;SDS011;40040;42.706;23.372;2023-09-30T14:11:39;5.30;;;4.90;;
6937;SDS011;40040;42.706;23.372;2023-09-30T14:14:06;5.60;;;5.10;;
6937;SDS011;40040;42.706;23.372;2023-09-30T14:16:34;5.43;;;4.97;;
6937;SDS011;40040;42.706;23.372;2023-09-30T14:19:02;6.07;;;5.47;;
6937;SDS011;40040;42.706;23.372;2023-09-30T14:21:29;10.52;;;7.43;;
6937;SDS011;40040;42.706;23.372;2023-09-30T14:23:58;7.70;;;5.50;;
6937;SDS011;40040;42.706;23.372;2023-09-30T14:26:27;5.32;;;4.93;;
6937;SDS011;40040;42.706;23.372;2023-09-30T14:28:54;5.35;;;4.85;;
6937;SDS011;40040;42.706;23.372;2023-09-30T14:31:21;7.25;;;5.32;;
6937;SDS011;40040;42.706;23.372;2023-09-30T14:33:47;5.53;;;5.13;;
6937;SDS011;40040;42.706;23.372;2023-09-30T14:36:15;7.13;;;5.93;;
6937;SDS011;40040;42.706;23.372;2023-09-30T14:38:43;6.70;;;4.88;;
6937;SDS011;40040;42.706;23.372;2023-09-30T14:41:11;5.72;;;5.22;;
6937;SDS011;40040;42.706;23.372;2023-09-30T14:43:38;5.43;;;4.93;;
6937;SDS011;40040;42.706;23.372;2023-09-30T14:46:05;5.25;;;4.72;;
6937;SDS011;40040;42.706;23.372;2023-09-30T14:48:33;5.18;;;4.82;;
6937;SDS011;40040;42.706;23.372;2023-09-30T14:51:00;5.55;;;5.10;;
6937;SDS011;40040;42.706;23.372;2023-09-30T14:53:29;5.53;;;4.78;;
6937;SDS011;40040;42.706;23.372;2023-09-30T14:55:56;5.53;;;4.97;;
6937;SDS011;40040;42.706;23.372;2023-09-30T14:58:24;5.43;;;5.03;;
6937;SDS011;40040;42.706;23.372;2023-09-30T15:00:51;6.32;;;4.95;;
6937;SDS011;40040;42.706;23.372;2023-09-30T15:03:18;6.15;;;4.88;;